Flight Track Log - Related Links

Times and Time Zones

All times are in EDT time to prevent confusion due to time zone crossing. See the N42HN flight status page for this flight to view local times or setup timezone preferences in your user account.

Time Position Orientation Groundspeed Altitude Reporting Facility
EDT Latitude Longitude Course Direction KTS MPH feet Rate Location/Type
Fri 01:28:21 PM 33.9333 -83.9167 165° South 205 236 5,800  Level Atlanta TRACON
Fri 01:30:17 PM 33.8086 -83.8764 165° South 244 281 11,900 3,205 Climbing Atlanta Center
Fri 01:31:17 PM 33.7439 -83.8339 151° Southeast 256 295 15,200 2,850 Climbing Atlanta Center
Fri 01:32:17 PM 33.6689 -83.8192 171° South 261 300 17,600 1,800 Climbing Atlanta Center
Fri 01:33:17 PM 33.5936 -83.8019 169° South 291 335 18,800 1,400 Climbing Atlanta Center
Fri 01:34:17 PM 33.4956 -83.7872 173° South 333 383 20,400 1,900 Climbing Atlanta Center
Fri 01:35:17 PM 33.3994 -83.7675 170° South 354 407 22,600 2,050 Climbing Atlanta Center
Fri 01:36:17 PM 33.3056 -83.7481 170° South 349 402 24,500 1,800 Climbing Atlanta Center
Fri 01:37:17 PM 33.2136 -83.7236 167° South 349 402 26,200 1,450 Climbing Atlanta Center
Fri 01:38:17 PM 33.1175 -83.6817 160° South 360 414 27,400 1,200 Climbing Atlanta Center
Fri 01:39:17 PM 33.0172 -83.6425 162° South 366 421 28,600 1,250 Climbing Atlanta Center
Fri 01:40:17 PM 32.9167 -83.6008 161° South 376 433 29,900 1,300 Climbing Atlanta Center
Fri 01:41:17 PM 32.8186 -83.5594 160° South 376 433 31,200 1,200 Climbing Atlanta Center
Fri 01:42:17 PM 32.7139 -83.5156 161° South 382 440 32,300 974 Climbing Atlanta Center
Fri 01:43:51 PM 32.5433 -83.4422 160° South 404 465 33,700 818 Climbing Jacksonville Center
Fri 01:44:51 PM 32.4347 -83.3997 162° South 404 465 34,400 750 Climbing Jacksonville Center
Fri 01:45:51 PM 32.3264 -83.3547 161° South 404 465 35,200 850 Climbing Jacksonville Center
Fri 01:46:51 PM 32.2200 -83.3100 160° South 409 471 36,100 900 Climbing Jacksonville Center
Fri 01:47:51 PM 32.1117 -83.2656 161° South 409 471 37,000 900 Climbing Jacksonville Center
Fri 01:48:51 PM 32.0011 -83.2208 161° South 409 471 37,900 800 Climbing Jacksonville Center
Fri 01:49:51 PM 31.8947 -83.1764 160° South 409 471 38,600 700 Climbing Jacksonville Center
Fri 01:50:51 PM 31.7883 -83.1344 161° South 409 471 39,300 600 Climbing Jacksonville Center
Fri 01:51:51 PM 31.6778 -83.0928 162° South 408 470 39,800 350 Climbing Jacksonville Center
Fri 01:52:51 PM 31.5694 -83.0461 160° South 408 470 40,000 100 Climbing Jacksonville Center
Fri 01:53:51 PM 31.4692 -83.0094 163° South 413 475 40,000  Level Jacksonville Center
Fri 01:54:51 PM 31.3544 -82.9631 161° South 425 489 40,000  Level Jacksonville Center
Fri 01:55:51 PM 31.2417 -82.9119 159° South 431 496 40,000  Level Jacksonville Center
Fri 01:56:51 PM 31.1247 -82.8683 162° South 437 503 40,000  Level Jacksonville Center
Fri 01:57:51 PM 31.0078 -82.8272 163° South 442 509 40,000  Level Jacksonville Center
Fri 01:58:51 PM 30.8908 -82.7789 160° South 442 509 40,000 -100 Level Jacksonville Center
Fri 01:59:51 PM 30.7592 -82.7258 161° South 447 514 39,800 -500 Descending Jacksonville Center
Fri 02:00:51 PM 30.6358 -82.6922 167° South 452 520 39,000 -400 Descending Jacksonville Center
Fri 02:01:51 PM 30.5272 -82.6708 170° South 446 513 39,000  Level Jacksonville Center
Fri 02:02:51 PM 30.4042 -82.6542 173° South 451 519 39,000  Level Jacksonville Center
Fri 02:03:51 PM 30.2622 -82.6378 174° South 451 519 39,000  Level Jacksonville Center
Fri 02:04:51 PM 30.1367 -82.6211 173° South 457 526 39,000  Level Jacksonville Center
Fri 02:05:51 PM 30.0386 -82.6047 172° South 457 526 39,000  Level Jacksonville Center
Fri 02:06:51 PM 29.9008 -82.5764 170° South 457 526 39,000  Level Jacksonville Center
Fri 02:07:51 PM 29.7753 -82.5481 169° South 462 532 39,000  Level Jacksonville Center
Fri 02:08:51 PM 29.6481 -82.5317 174° South 467 537 39,000  Level Jacksonville Center
Fri 02:09:51 PM 29.5081 -82.5131 173° South 467 537 39,000  Level Jacksonville Center
Fri 02:10:51 PM 29.3889 -82.4731 164° South 467 537 39,000  Level Jacksonville Center
Fri 02:11:51 PM 29.2822 -82.3950 147° Southeast 447 514 39,000  Level Jacksonville Center
Fri 02:12:51 PM 29.1775 -82.3169 147° Southeast 447 514 39,000  Level Jacksonville Center
Fri 02:13:51 PM 29.0667 -82.2417 149° Southeast 459 528 39,000  Level Jacksonville Center
Fri 02:16:04 PM 28.8236 -82.0681 148° Southeast 468 539 39,000  Level Miami Center
Fri 02:17:04 PM 28.7269 -81.9711 139° Southeast 461 531 39,000  Level Miami Center
Fri 02:18:04 PM 28.6347 -81.8653 135° Southeast 466 536 39,000  Level Miami Center
Fri 02:19:04 PM 28.5381 -81.7642 137° Southeast 471 542 39,000  Level Miami Center
Fri 02:20:04 PM 28.4453 -81.6750 140° Southeast 484 557 39,000  Level Miami Center
Fri 02:21:04 PM 28.3419 -81.5811 141° Southeast 484 557 39,000  Level Miami Center
Fri 02:22:04 PM 28.2319 -81.4986 147° Southeast 479 551 39,000  Level Miami Center
Fri 02:23:04 PM 28.1131 -81.4281 152° Southeast 479 551 39,000  Level Miami Center
Fri 02:24:04 PM 28.0008 -81.3528 149° Southeast 474 545 39,000 -850 Level Miami Center
Fri 02:25:04 PM 27.8739 -81.2750 152° Southeast 468 539 37,300 -1,750 Descending Miami Center
Fri 02:26:04 PM 27.7672 -81.2075 151° Southeast 473 544 35,500 -2,250 Descending Miami Center
Fri 02:27:04 PM 27.6483 -81.1350 152° Southeast 479 551 32,800 -2,700 Descending Miami Center
Fri 02:28:04 PM 27.5358 -81.0606 150° Southeast 479 551 30,100 -2,350 Descending Miami Center
Fri 02:29:04 PM 27.4250 -80.9933 152° Southeast 463 533 28,100 -2,400 Descending Miami Center
Fri 02:30:04 PM 27.3206 -80.9242 150° Southeast 446 513 25,300 -2,450 Descending Miami Center
Fri 02:31:04 PM 27.2178 -80.8644 153° Southeast 429 494 23,200 -2,150 Descending Miami Center
Fri 02:32:04 PM 27.1192 -80.8053 152° Southeast 416 479 21,000 -2,050 Descending Miami Center
Fri 02:33:04 PM 27.0269 -80.7461 150° Southeast 396 456 19,100 -1,850 Descending Miami Center
Fri 02:34:04 PM 26.9306 -80.6822 149° Southeast 375 432 17,300 -2,000 Descending Miami Center
Fri 02:35:04 PM 26.8464 -80.6283 150° Southeast 360 414 15,100 -2,100 Descending Miami Center
Fri 02:36:04 PM 26.7619 -80.5814 154° Southeast 346 398 13,100 -1,750 Descending Miami Center
Fri 02:37:04 PM 26.6858 -80.5325 150° Southeast 346 398 11,600 -1,068 Descending Miami Center
Fri 02:38:02 PM 26.5953 -80.4786 152° Southeast 337 388 11,000 -700 Descending Miami Center
Fri 02:39:04 PM 26.5211 -80.4322 151° Southeast 340 391 10,200 -1,426 Descending Miami Center
Fri 02:40:04 PM 26.4406 -80.4019 161° South 272 313 8,100 -1,100 Descending Miami Center
Fri 02:41:04 PM 26.3783 -80.3817 164° South 268 308 8,000 -950 Descending Miami Center
Fri 02:42:04 PM 26.3017 -80.3583 165° South 260 299 6,200 -1,700 Descending Miami Center
Fri 02:43:04 PM 26.2414 -80.3403 165° South 260 299 4,600 -1,632 Descending Miami Center
Fri 02:44:09 PM 26.1628 -80.3150 164° South 229 264 2,800 -1,350 Descending Miami Center
Fri 02:45:04 PM 26.1303 -80.2769 134° Southeast 226 260 1,900 -783 Descending Miami Center
Fri 02:46:04 PM 26.0958 -80.2297 129° Southeast 208 239 1,300 -750 Descending Miami Center
Fri 02:47:04 PM 26.0778 -80.1922 118° Southeast 171 197 400 -900 Descending Miami Center
Fri 02:49:00 PM 26.0667 -80.1500 156° South  Level FlightAware Approximate

Login

Don't have an account? Register now (free) for customized features, flight alerts, and more!